Time;durP1;ratioP1;P1;durP2;ratioP2;P2;SDS_P1;SDS_P2;PMS_P1;PMS_P2;Temp;Humidity;BMP_temperature;BMP_pressure;BME280_temperature;BME280_humidity;BME280_pressure;Samples;Min_cycle;Max_cycle;Signal;HPM_P1;HPM_P2
2022/03/23 00:00:21;;;;;;;18.95;15.00;;;28.20;99.90;;;;;;4123867;28;20116;-70
2022/03/23 00:02:31;;;;;;;23.73;18.42;;;28.20;99.90;;;;;;4079257;28;20052;-70
2022/03/23 00:04:35;;;;;;;25.15;19.35;;;28.30;99.90;;;;;;4123602;28;20388;-70
2022/03/23 00:06:44;;;;;;;23.67;18.98;;;28.30;99.90;;;;;;4149872;28;20049;-70
2022/03/23 00:08:55;;;;;;;23.52;19.05;;;28.40;99.90;;;;;;4160977;28;20053;-70
2022/03/23 00:11:01;;;;;;;22.15;18.10;;;28.40;99.90;;;;;;4161301;28;20673;-70
2022/03/23 00:13:07;;;;;;;24.02;17.77;;;28.40;99.90;;;;;;4161560;28;20085;-70
2022/03/23 00:15:13;;;;;;;20.50;16.90;;;28.40;99.90;;;;;;4116426;28;20134;-68
2022/03/23 00:17:18;;;;;;;18.83;16.55;;;28.50;99.90;;;;;;4160845;28;20114;-67
2022/03/23 00:19:23;;;;;;;24.00;17.80;;;28.50;99.90;;;;;;4160269;28;20053;-68
2022/03/23 00:21:28;;;;;;;23.48;15.98;;;28.50;99.90;;;;;;4155363;28;20065;-69
2022/03/23 00:23:33;;;;;;;17.05;14.00;;;28.50;99.90;;;;;;4159854;28;20049;-69
2022/03/23 00:25:37;;;;;;;24.88;13.85;;;28.60;99.90;;;;;;4158876;28;20126;-69
2022/03/23 00:27:42;;;;;;;16.70;12.07;;;28.60;99.90;;;;;;4157663;28;20765;-69
2022/03/23 00:29:48;;;;;;;16.33;12.82;;;28.60;99.90;;;;;;4158013;28;20488;-69
2022/03/23 00:31:53;;;;;;;14.88;12.23;;;28.70;99.90;;;;;;4158691;28;20057;-69
2022/03/23 00:33:59;;;;;;;15.65;12.85;;;28.70;99.90;;;;;;4131240;28;20060;-70
2022/03/23 00:36:06;;;;;;;16.27;12.55;;;28.80;99.90;;;;;;4181484;28;20111;-68
2022/03/23 00:38:11;;;;;;;20.55;13.32;;;28.80;99.90;;;;;;4156168;28;20076;-70
2022/03/23 00:40:21;;;;;;;17.20;12.13;;;28.80;99.90;;;;;;4159031;28;20049;-69
2022/03/23 00:42:27;;;;;;;15.45;11.75;;;28.80;99.90;;;;;;4160348;28;20644;-68
2022/03/23 00:44:33;;;;;;;13.32;11.88;;;28.90;99.90;;;;;;4145137;28;20659;-70
2022/03/23 00:46:42;;;;;;;15.40;11.65;;;29.00;99.90;;;;;;4145002;28;20041;-69
2022/03/23 00:48:47;;;;;;;18.42;11.52;;;29.00;99.90;;;;;;4161797;28;20080;-69
2022/03/23 00:50:51;;;;;;;15.55;11.65;;;29.10;99.90;;;;;;4162619;28;20654;-69
2022/03/23 00:52:59;;;;;;;16.77;11.52;;;29.10;99.90;;;;;;4164340;28;20056;-69
2022/03/23 00:55:09;;;;;;;16.13;10.50;;;29.20;99.90;;;;;;4163353;28;20080;-68
2022/03/23 00:57:14;;;;;;;15.93;11.80;;;29.30;99.90;;;;;;4162239;28;20063;-69
2022/03/23 00:59:22;;;;;;;14.23;11.15;;;29.30;99.90;;;;;;4162336;28;20782;-69
2022/03/23 01:01:27;;;;;;;17.30;11.77;;;29.40;99.90;;;;;;4160381;28;20060;-68
2022/03/23 01:03:32;;;;;;;18.65;11.65;;;29.40;99.90;;;;;;4161873;28;20049;-69
2022/03/23 01:05:40;;;;;;;14.77;11.25;;;29.50;99.90;;;;;;4161471;28;20060;-71
2022/03/23 01:07:49;;;;;;;13.60;10.77;;;29.50;99.90;;;;;;4163803;28;20033;-72
2022/03/23 01:09:54;;;;;;;18.05;11.32;;;29.60;99.90;;;;;;4161631;28;20037;-69
2022/03/23 01:11:59;;;;;;;16.60;11.50;;;29.60;99.90;;;;;;4162922;28;20048;-70
2022/03/23 01:14:04;;;;;;;18.58;11.75;;;29.70;99.90;;;;;;4185065;28;20052;-70
2022/03/23 01:16:12;;;;;;;19.75;11.88;;;29.80;99.90;;;;;;4160070;28;20076;-70
2022/03/23 01:18:17;;;;;;;16.88;11.98;;;29.80;99.90;;;;;;4157457;28;20115;-68
2022/03/23 01:20:22;;;;;;;20.58;13.65;;;29.90;99.90;;;;;;4156086;28;20049;-68
2022/03/23 01:22:27;;;;;;;19.38;13.77;;;29.90;99.90;;;;;;4160293;28;20045;-69
2022/03/23 01:24:32;;;;;;;17.63;12.25;;;29.90;99.90;;;;;;4160343;28;20042;-69
2022/03/23 01:26:37;;;;;;;16.60;12.45;;;30.00;99.90;;;;;;4162068;28;20041;-69
2022/03/23 01:28:41;;;;;;;16.65;11.98;;;30.10;99.90;;;;;;4159620;28;20903;-69
2022/03/23 01:30:47;;;;;;;16.15;12.32;;;30.20;99.90;;;;;;4160233;28;20041;-69
2022/03/23 01:32:52;;;;;;;16.52;11.75;;;30.20;99.90;;;;;;4162322;28;20080;-69
2022/03/23 01:34:57;;;;;;;22.30;12.32;;;30.20;99.90;;;;;;4160199;28;20045;-69
2022/03/23 01:37:03;;;;;;;13.55;11.02;;;30.30;99.90;;;;;;4160725;28;20053;-69
2022/03/23 01:39:08;;;;;;;13.60;10.55;;;30.30;99.90;;;;;;4162673;28;20067;-70
2022/03/23 01:41:13;;;;;;;15.77;11.27;;;30.40;99.90;;;;;;4160422;28;20091;-70
2022/03/23 01:43:19;;;;;;;15.05;10.00;;;30.40;99.90;;;;;;4160096;28;20045;-70
2022/03/23 01:45:24;;;;;;;15.23;9.93;;;30.50;99.90;;;;;;4160869;28;20041;-69
2022/03/23 01:47:30;;;;;;;12.80;9.23;;;30.50;99.90;;;;;;4161210;28;20045;-69
2022/03/23 01:49:39;;;;;;;18.02;9.52;;;30.50;99.90;;;;;;4159839;28;20620;-70
2022/03/23 01:51:45;;;;;;;12.23;8.25;;;30.60;99.90;;;;;;4160030;28;20065;-69
2022/03/23 01:53:49;;;;;;;12.82;7.40;;;30.60;99.90;;;;;;4161071;28;20583;-69
2022/03/23 01:55:55;;;;;;;11.65;6.90;;;30.60;99.70;;;;;;4160125;28;20065;-69
2022/03/23 01:58:01;;;;;;;14.65;6.97;;;30.60;99.60;;;;;;4158660;28;20059;-69
2022/03/23 02:00:07;;;;;;;14.55;7.05;;;30.60;99.60;;;;;;4162267;28;20048;-69
2022/03/23 02:02:17;;;;;;;10.10;6.57;;;30.70;99.50;;;;;;4159807;28;20049;-69
2022/03/23 02:04:40;;;;;;;;;;;30.70;99.30;;;;;;4159758;28;20053;-70
2022/03/23 02:06:46;;;;;;;12.02;6.57;;;30.80;98.90;;;;;;4165953;28;19959;-69
2022/03/23 02:08:56;;;;;;;12.35;7.00;;;30.80;99.10;;;;;;4187427;28;20044;-69
2022/03/23 02:11:05;;;;;;;10.48;7.07;;;30.90;98.90;;;;;;4159181;28;20148;-69
2022/03/23 02:13:14;;;;;;;12.82;7.75;;;31.00;98.90;;;;;;4159188;28;20041;-69
2022/03/23 02:15:22;;;;;;;14.38;7.85;;;31.00;98.80;;;;;;4160747;28;20071;-69
2022/03/23 02:17:29;;;;;;;12.80;7.72;;;31.00;98.90;;;;;;4161256;28;20056;-69
2022/03/23 02:19:35;;;;;;;11.45;7.13;;;31.00;98.90;;;;;;4158129;28;20063;-68
2022/03/23 02:21:56;;;;;;;9.15;6.53;;;31.00;98.90;;;;;;4158957;28;20132;-69
2022/03/23 02:24:04;;;;;;;7.32;5.70;;;31.10;98.50;;;;;;4157781;28;20045;-70
2022/03/23 02:26:10;;;;;;;11.73;6.72;;;31.20;97.70;;;;;;4160689;28;20480;-69
2022/03/23 02:28:17;;;;;;;7.60;6.25;;;31.20;97.80;;;;;;4112483;28;20489;-69
2022/03/23 02:30:24;;;;;;;8.85;5.13;;;31.30;97.70;;;;;;4158760;28;20112;-69
2022/03/23 02:32:30;;;;;;;8.20;5.53;;;31.40;97.50;;;;;;4160219;28;20045;-69
2022/03/23 02:34:37;;;;;;;6.25;5.22;;;31.40;97.30;;;;;;4141242;28;20050;-70
2022/03/23 02:36:44;;;;;;;8.45;5.20;;;31.40;96.80;;;;;;4160886;28;20688;-69
2022/03/23 02:38:49;;;;;;;5.88;4.53;;;31.40;96.40;;;;;;4159877;28;20052;-69
2022/03/23 02:40:55;;;;;;;7.05;5.43;;;31.50;96.20;;;;;;4126399;28;20050;-68
2022/03/23 02:43:02;;;;;;;5.13;4.55;;;31.40;96.60;;;;;;4158786;28;20045;-68
2022/03/23 02:45:10;;;;;;;6.70;4.50;;;31.50;96.50;;;;;;4160336;28;20131;-68
2022/03/23 02:47:17;;;;;;;5.63;4.40;;;31.60;96.30;;;;;;4134905;28;20141;-69
2022/03/23 02:49:25;;;;;;;9.80;5.10;;;31.60;96.20;;;;;;4159925;28;20045;-68
2022/03/23 02:51:30;;;;;;;6.95;4.47;;;31.70;96.00;;;;;;4160704;28;20037;-68
2022/03/23 03:03:14;;;;;;;7.97;4.43;;;31.60;96.40;;;;;;4158087;28;20057;-70
2022/03/23 03:05:21;;;;;;;6.20;4.07;;;31.60;95.90;;;;;;4158697;28;20354;-69
2022/03/23 03:07:26;;;;;;;6.78;4.65;;;31.70;95.60;;;;;;4159299;28;20049;-70
2022/03/23 03:09:33;;;;;;;9.75;4.40;;;31.70;95.70;;;;;;4159390;28;20572;-70
2022/03/23 03:11:38;;;;;;;5.30;4.25;;;31.60;95.70;;;;;;4159461;28;20444;-68
2022/03/23 03:13:48;;;;;;;5.32;4.03;;;31.60;95.80;;;;;;4131763;28;20046;-70
2022/03/23 03:15:59;;;;;;;5.13;3.72;;;31.70;95.90;;;;;;4157090;28;20138;-68
2022/03/23 03:18:03;;;;;;;4.47;3.78;;;31.80;95.30;;;;;;4155805;28;20427;-69
2022/03/23 03:20:10;;;;;;;7.32;3.80;;;31.80;95.20;;;;;;4153294;28;20079;-69
2022/03/23 03:22:15;;;;;;;9.23;3.72;;;31.80;94.90;;;;;;4156961;28;20049;-70
2022/03/23 03:24:20;;;;;;;6.10;4.22;;;31.70;94.90;;;;;;4159511;28;20813;-70
2022/03/23 03:26:26;;;;;;;6.75;5.20;;;31.70;95.00;;;;;;4096665;28;20047;-70
2022/03/23 03:28:33;;;;;;;8.73;4.90;;;31.60;94.80;;;;;;4156565;28;20133;-69
2022/03/23 03:30:38;;;;;;;7.20;4.75;;;31.50;94.90;;;;;;4157413;28;20164;-69
2022/03/23 03:32:43;;;;;;;5.07;4.50;;;31.60;95.00;;;;;;4156499;28;20044;-69
2022/03/23 03:34:49;;;;;;;6.95;4.55;;;31.70;95.00;;;;;;4157955;28;20447;-69
2022/03/23 03:36:54;;;;;;;7.35;4.15;;;31.80;94.80;;;;;;4157416;28;20136;-69
2022/03/23 03:38:59;;;;;;;5.53;3.83;;;32.00;94.40;;;;;;4156869;28;20508;-69
2022/03/23 03:41:06;;;;;;;7.30;3.67;;;32.00;94.40;;;;;;4155366;28;20049;-69
2022/03/23 03:43:11;;;;;;;7.78;3.33;;;32.10;94.00;;;;;;4156675;28;20065;-69
2022/03/23 03:45:17;;;;;;;5.38;3.50;;;32.10;93.80;;;;;;4158024;28;20052;-69
2022/03/23 03:47:24;;;;;;;6.72;3.00;;;32.10;93.50;;;;;;4156745;28;20046;-69
2022/03/23 03:49:28;;;;;;;4.05;3.05;;;32.10;93.60;;;;;;4158296;28;20052;-69
2022/03/23 03:51:34;;;;;;;5.95;3.22;;;32.10;93.70;;;;;;4156782;28;20049;-69
2022/03/23 03:53:42;;;;;;;4.75;3.50;;;32.10;93.50;;;;;;4157705;28;20067;-69
2022/03/23 03:55:47;;;;;;;3.80;3.45;;;32.10;93.60;;;;;;4157507;28;20053;-69
2022/03/23 03:57:53;;;;;;;5.80;3.58;;;32.10;93.20;;;;;;4156804;28;20053;-69
2022/03/23 04:00:00;;;;;;;4.22;3.30;;;32.20;93.20;;;;;;4157903;28;20041;-69
2022/03/23 04:02:14;;;;;;;4.85;2.72;;;32.30;92.90;;;;;;4157543;28;20057;-69
2022/03/23 04:04:19;;;;;;;7.07;3.00;;;32.50;92.80;;;;;;4157520;28;20040;-69
2022/03/23 04:06:23;;;;;;;3.75;2.97;;;32.60;92.50;;;;;;4157485;28;20038;-68
2022/03/23 04:08:28;;;;;;;2.45;2.25;;;32.60;92.60;;;;;;4158160;28;20045;-70
2022/03/23 04:10:34;;;;;;;4.82;2.65;;;32.60;92.20;;;;;;4157872;28;20049;-69
2022/03/23 04:12:41;;;;;;;3.45;2.63;;;32.50;92.80;;;;;;4157518;28;20044;-69
2022/03/23 04:14:46;;;;;;;4.97;3.03;;;32.50;92.70;;;;;;4156085;28;20049;-70
2022/03/23 04:16:53;;;;;;;5.43;2.70;;;32.60;92.60;;;;;;4157853;28;20041;-70
2022/03/23 04:19:00;;;;;;;3.60;2.70;;;32.70;92.40;;;;;;4157676;28;20088;-69
2022/03/23 04:21:17;;;;;;;4.25;3.05;;;32.80;92.20;;;;;;4160327;28;20041;-70
2022/03/23 04:23:23;;;;;;;3.72;2.30;;;32.80;92.20;;;;;;4161307;28;20088;-69
2022/03/23 04:25:31;;;;;;;7.93;3.25;;;32.90;92.20;;;;;;4160982;28;20052;-71
2022/03/23 04:27:46;;;;;;;3.55;2.50;;;32.90;92.10;;;;;;4160679;28;20049;-70
2022/03/23 04:29:54;;;;;;;4.13;2.50;;;33.00;91.80;;;;;;4160593;28;20047;-70
2022/03/23 04:32:00;;;;;;;3.03;2.53;;;33.00;91.70;;;;;;4160514;28;20041;-69
2022/03/23 04:34:07;;;;;;;3.85;2.67;;;33.00;91.90;;;;;;4160876;28;20042;-69
2022/03/23 04:36:13;;;;;;;3.67;2.92;;;33.00;91.80;;;;;;4159478;28;20593;-70
2022/03/23 04:38:20;;;;;;;5.00;2.83;;;33.00;91.80;;;;;;4159500;28;20480;-70
2022/03/23 04:40:26;;;;;;;7.07;2.70;;;32.90;91.90;;;;;;4158942;28;20053;-70
2022/03/23 04:42:33;;;;;;;4.80;3.03;;;32.90;91.90;;;;;;4150132;28;20055;-69
2022/03/23 04:44:39;;;;;;;5.18;2.53;;;32.90;91.70;;;;;;4161298;28;20083;-71
2022/03/23 04:46:47;;;;;;;3.08;2.58;;;32.90;91.60;;;;;;4160830;28;20080;-69
2022/03/23 04:48:53;;;;;;;3.33;2.63;;;32.90;91.70;;;;;;4160696;28;20530;-69
2022/03/23 04:51:00;;;;;;;4.88;2.75;;;32.90;91.90;;;;;;4160714;28;20045;-69
2022/03/23 04:53:06;;;;;;;4.15;2.60;;;33.00;91.80;;;;;;4161061;28;20049;-70
2022/03/23 04:55:11;;;;;;;4.10;2.30;;;32.90;91.30;;;;;;4161194;28;20084;-69
2022/03/23 04:57:19;;;;;;;3.38;2.35;;;32.90;91.60;;;;;;4160692;28;20079;-69
2022/03/23 04:59:26;;;;;;;3.80;2.55;;;32.80;91.70;;;;;;4160777;28;20050;-69
2022/03/23 05:01:32;;;;;;;3.67;2.58;;;32.80;91.90;;;;;;4125624;28;20198;-71
2022/03/23 05:03:40;;;;;;;3.22;2.38;;;32.90;91.60;;;;;;4160601;28;20049;-69
2022/03/23 05:05:46;;;;;;;2.97;2.67;;;33.00;91.60;;;;;;4161196;28;20069;-69
2022/03/23 05:07:54;;;;;;;3.42;2.70;;;33.00;91.90;;;;;;4160782;28;20047;-68
2022/03/23 05:10:02;;;;;;;3.58;2.60;;;33.30;91.60;;;;;;4161011;28;20052;-69
2022/03/23 05:12:07;;;;;;;2.92;2.60;;;33.30;91.40;;;;;;4159655;28;20037;-67
2022/03/23 05:14:16;;;;;;;3.75;2.65;;;33.20;91.80;;;;;;4110925;28;20074;-69
2022/03/23 05:16:22;;;;;;;4.68;2.75;;;33.30;91.90;;;;;;4160952;28;20053;-68
2022/03/23 05:18:28;;;;;;;4.00;2.40;;;33.50;91.70;;;;;;4154864;28;20053;-68
2022/03/23 05:20:34;;;;;;;4.22;2.67;;;33.40;91.80;;;;;;4155243;28;20072;-69
2022/03/23 05:22:39;;;;;;;4.63;2.50;;;33.40;91.50;;;;;;4160826;28;20103;-69
2022/03/23 05:24:44;;;;;;;3.75;2.60;;;33.30;91.30;;;;;;4161452;28;20056;-67
2022/03/23 05:26:51;;;;;;;9.13;2.70;;;33.20;90.70;;;;;;4138939;28;20060;-68
2022/03/23 05:28:58;;;;;;;3.88;2.40;;;33.10;90.80;;;;;;4159181;28;20029;-68
2022/03/23 05:31:03;;;;;;;3.58;2.78;;;33.10;90.80;;;;;;4159085;28;20045;-67
2022/03/23 05:33:09;;;;;;;3.88;2.83;;;33.20;90.60;;;;;;4158381;28;20050;-68
2022/03/23 05:35:17;;;;;;;2.55;2.30;;;33.30;90.50;;;;;;4159876;28;20499;-68
2022/03/23 05:37:35;;;;;;;3.88;3.00;;;33.30;90.70;;;;;;4159111;28;20103;-68
2022/03/23 05:39:46;;;;;;;4.93;2.47;;;33.40;90.80;;;;;;4159078;28;20416;-68
2022/03/23 05:41:51;;;;;;;5.50;2.53;;;33.40;90.90;;;;;;4159877;28;20042;-67
2022/03/23 05:43:56;;;;;;;4.30;2.40;;;33.50;90.60;;;;;;4159994;28;20080;-68
2022/03/23 05:46:01;;;;;;;3.80;2.50;;;33.50;90.90;;;;;;4159697;28;20049;-68
2022/03/23 05:48:09;;;;;;;4.55;2.70;;;33.40;90.90;;;;;;4159653;28;20056;-68
2022/03/23 05:50:14;;;;;;;4.95;2.53;;;33.40;90.90;;;;;;4159203;28;20051;-68
2022/03/23 05:52:19;;;;;;;3.92;2.65;;;33.30;90.50;;;;;;4158068;28;20049;-69
2022/03/23 05:54:25;;;;;;;3.45;3.15;;;33.30;90.60;;;;;;4159660;28;20037;-68
2022/03/23 05:56:30;;;;;;;5.18;2.60;;;33.20;90.30;;;;;;4158206;28;20077;-69
2022/03/23 05:58:35;;;;;;;6.35;2.47;;;33.20;90.50;;;;;;4159384;28;20045;-68
2022/03/23 06:00:42;;;;;;;5.55;2.70;;;33.30;90.50;;;;;;4142184;28;20088;-68
2022/03/23 06:02:47;;;;;;;3.88;3.08;;;33.30;90.10;;;;;;4159234;28;20057;-68
2022/03/23 06:04:54;;;;;;;4.53;2.90;;;33.40;90.60;;;;;;4157540;28;20045;-68
2022/03/23 06:07:00;;;;;;;3.35;2.88;;;33.50;90.70;;;;;;4157200;28;20053;-68
2022/03/23 06:09:08;;;;;;;5.90;3.40;;;33.60;90.60;;;;;;4158296;28;20060;-68
2022/03/23 06:11:15;;;;;;;4.82;2.70;;;33.70;90.40;;;;;;4159314;28;20067;-68
2022/03/23 06:13:20;;;;;;;4.05;2.63;;;33.70;90.10;;;;;;4157449;28;20112;-67
2022/03/23 06:15:25;;;;;;;4.05;2.45;;;33.80;89.60;;;;;;4158319;28;20047;-67
2022/03/23 06:17:32;;;;;;;3.20;2.42;;;33.90;89.70;;;;;;4142281;28;20895;-67
2022/03/23 06:19:39;;;;;;;3.83;2.40;;;34.10;89.00;;;;;;4164875;28;20533;-68
2022/03/23 06:21:44;;;;;;;4.68;2.60;;;34.10;89.50;;;;;;4159068;28;20069;-68
2022/03/23 06:23:53;;;;;;;4.65;2.40;;;34.10;89.50;;;;;;4158395;28;20128;-68
2022/03/23 06:26:01;;;;;;;3.83;2.70;;;34.20;89.40;;;;;;4156914;28;20107;-69
2022/03/23 06:28:07;;;;;;;4.10;3.13;;;34.20;88.70;;;;;;4158372;28;20042;-68
2022/03/23 06:30:13;;;;;;;4.00;3.00;;;34.30;88.40;;;;;;4157093;28;20049;-68
2022/03/23 06:32:21;;;;;;;2.63;2.20;;;34.10;87.50;;;;;;4157739;28;20080;-67
2022/03/23 06:34:28;;;;;;;2.92;2.63;;;34.10;87.70;;;;;;4158566;28;20103;-69
2022/03/23 06:36:36;;;;;;;3.47;2.35;;;34.20;87.60;;;;;;4184468;28;20445;-68
2022/03/23 06:38:41;;;;;;;4.30;2.85;;;34.20;87.20;;;;;;4156029;28;20045;-67
2022/03/23 06:40:47;;;;;;;7.03;3.10;;;34.20;87.30;;;;;;4157532;28;20440;-67
2022/03/23 06:42:54;;;;;;;4.05;2.67;;;34.30;87.70;;;;;;4158119;28;20048;-68
2022/03/23 06:45:02;;;;;;;3.15;2.13;;;34.40;86.60;;;;;;4157374;28;20053;-67
2022/03/23 06:47:07;;;;;;;3.00;2.20;;;34.50;86.60;;;;;;4157904;28;20045;-67
2022/03/23 06:49:13;;;;;;;2.53;1.90;;;34.50;86.50;;;;;;4157596;28;20050;-68
2022/03/23 06:51:20;;;;;;;5.18;2.20;;;34.60;87.00;;;;;;4158578;28;20045;-68
2022/03/23 06:53:26;;;;;;;4.60;2.17;;;34.60;86.50;;;;;;4154971;28;20041;-68
2022/03/23 06:55:32;;;;;;;2.95;1.83;;;34.70;86.60;;;;;;4157239;28;20037;-68
2022/03/23 06:57:39;;;;;;;2.55;1.92;;;34.60;86.40;;;;;;4157856;28;20084;-68
2022/03/23 06:59:44;;;;;;;3.38;2.03;;;34.70;86.30;;;;;;4158536;28;20638;-68
2022/03/23 07:01:49;;;;;;;2.88;2.20;;;34.70;85.60;;;;;;4157721;28;20054;-68
2022/03/23 07:03:56;;;;;;;3.60;2.17;;;34.70;85.70;;;;;;4156406;28;20056;-68
2022/03/23 07:06:01;;;;;;;2.90;2.33;;;34.80;84.70;;;;;;4156944;28;20069;-68
2022/03/23 07:10:32;;;;;;;2.53;2.10;;;34.80;83.90;;;;;;4157889;28;20053;-68
2022/03/23 07:12:38;;;;;;;3.50;2.33;;;34.90;83.90;;;;;;4157397;28;20137;-67
2022/03/23 07:14:43;;;;;;;4.78;2.05;;;34.90;83.80;;;;;;4140824;28;20049;-67
2022/03/23 07:16:49;;;;;;;2.20;1.90;;;34.90;83.80;;;;;;4157282;28;20076;-67
2022/03/23 07:18:55;;;;;;;5.28;2.05;;;34.90;83.50;;;;;;4155585;28;20084;-68
2022/03/23 07:21:04;;;;;;;3.50;2.03;;;34.70;83.90;;;;;;4159117;28;20228;-68
2022/03/23 07:23:10;;;;;;;2.95;2.00;;;34.70;82.50;;;;;;4159001;28;20515;-68
2022/03/23 07:25:15;;;;;;;3.22;2.00;;;34.70;83.10;;;;;;4156754;28;20480;-68
2022/03/23 07:27:20;;;;;;;2.20;1.88;;;34.60;83.50;;;;;;4157642;28;20041;-68
2022/03/23 07:29:31;;;;;;;2.60;2.10;;;34.50;83.30;;;;;;4155853;28;20045;-68
2022/03/23 07:31:40;;;;;;;6.63;2.10;;;34.50;83.00;;;;;;4180185;28;20055;-68
2022/03/23 07:33:58;;;;;;;3.08;2.08;;;34.60;82.70;;;;;;4173874;28;20049;-68
2022/03/23 07:36:12;;;;;;;3.72;2.03;;;34.70;81.90;;;;;;4156204;28;20060;-67
2022/03/23 07:38:19;;;;;;;3.42;2.03;;;34.60;82.00;;;;;;4155458;28;20056;-68
2022/03/23 07:40:36;;;;;;;3.25;2.15;;;34.70;81.90;;;;;;4155317;28;20041;-68
2022/03/23 07:42:47;;;;;;;5.82;2.20;;;34.80;80.80;;;;;;4099710;28;20433;-68
2022/03/23 07:44:52;;;;;;;3.92;2.50;;;34.70;80.70;;;;;;4081086;28;20129;-67
2022/03/23 07:46:57;;;;;;;2.17;1.98;;;34.70;80.90;;;;;;4079808;28;20063;-69
2022/03/23 07:49:04;;;;;;;3.28;2.30;;;34.60;80.50;;;;;;4099561;28;20900;-68
2022/03/23 07:51:09;;;;;;;3.08;2.10;;;34.60;80.20;;;;;;4097369;28;20163;-68
2022/03/23 07:53:16;;;;;;;2.95;2.00;;;34.60;81.10;;;;;;4078632;28;20607;-68
2022/03/23 07:55:23;;;;;;;2.67;2.10;;;34.60;81.90;;;;;;4068007;29;20094;-68
2022/03/23 07:57:28;;;;;;;2.75;2.10;;;34.60;82.50;;;;;;4080583;29;20053;-68
2022/03/23 07:59:35;;;;;;;3.85;2.30;;;34.50;83.10;;;;;;4081771;28;20054;-68
2022/03/23 08:01:42;;;;;;;4.57;2.00;;;34.50;83.20;;;;;;4068434;29;20054;-67
2022/03/23 08:03:48;;;;;;;2.63;2.13;;;34.50;83.20;;;;;;4098356;28;20063;-68
2022/03/23 08:06:00;;;;;;;2.70;1.92;;;34.40;83.60;;;;;;4082311;28;21005;-68
2022/03/23 08:08:09;;;;;;;3.80;2.30;;;34.30;83.50;;;;;;4121357;28;20056;-68
2022/03/23 08:10:15;;;;;;;3.05;2.40;;;34.30;83.40;;;;;;4120739;28;20050;-69
2022/03/23 08:12:23;;;;;;;3.10;2.45;;;34.20;83.10;;;;;;4137962;28;20050;-69
2022/03/23 08:14:30;;;;;;;5.43;2.47;;;34.20;83.50;;;;;;4157679;28;20053;-69
2022/03/23 08:16:36;;;;;;;2.65;2.40;;;34.20;83.70;;;;;;4154622;28;20140;-68
2022/03/23 08:18:43;;;;;;;5.20;2.60;;;34.20;83.70;;;;;;4157900;28;20485;-68
2022/03/23 08:20:51;;;;;;;4.55;2.80;;;34.30;83.00;;;;;;4156841;28;20048;-68
2022/03/23 08:22:57;;;;;;;4.70;2.55;;;34.30;82.90;;;;;;4155429;28;20057;-67
2022/03/23 08:25:06;;;;;;;3.00;2.70;;;34.30;82.70;;;;;;4157498;28;20053;-67
2022/03/23 08:27:15;;;;;;;4.35;2.58;;;34.30;83.10;;;;;;4178267;28;20499;-67
2022/03/23 08:29:21;;;;;;;4.30;2.90;;;34.30;83.20;;;;;;4156736;28;20718;-67
2022/03/23 08:31:40;;;;;;;4.22;2.85;;;34.30;83.20;;;;;;4153388;28;20053;-68
2022/03/23 08:33:45;;;;;;;5.57;2.53;;;34.30;83.10;;;;;;4140081;28;20045;-69
2022/03/23 08:35:51;;;;;;;3.97;2.75;;;34.30;82.80;;;;;;4175625;28;20056;-68
2022/03/23 08:37:56;;;;;;;2.78;2.47;;;34.30;82.70;;;;;;4154644;28;20069;-68
2022/03/23 08:40:04;;;;;;;3.22;2.42;;;34.30;83.30;;;;;;4157591;28;20045;-68
2022/03/23 08:42:09;;;;;;;4.40;2.80;;;34.30;83.50;;;;;;4141091;28;20046;-67
2022/03/23 08:44:16;;;;;;;2.90;2.45;;;34.20;82.70;;;;;;4155019;28;20041;-68
2022/03/23 08:46:21;;;;;;;2.55;2.22;;;34.30;82.70;;;;;;4154264;28;20045;-67
2022/03/23 08:48:26;;;;;;;2.42;2.03;;;34.30;82.20;;;;;;4157033;28;20133;-68
2022/03/23 08:50:34;;;;;;;5.60;2.25;;;34.20;81.90;;;;;;4155048;28;20042;-68
2022/03/23 08:52:41;;;;;;;3.88;2.65;;;34.20;81.60;;;;;;4156009;28;20051;-68
2022/03/23 08:54:46;;;;;;;9.18;3.95;;;34.10;84.10;;;;;;4156008;28;20056;-68
2022/03/23 08:56:53;;;;;;;7.25;3.58;;;34.00;85.70;;;;;;4156652;28;20050;-67
2022/03/23 08:58:59;;;;;;;7.03;4.07;;;33.80;89.20;;;;;;4155017;28;20140;-68
2022/03/23 09:01:05;;;;;;;7.47;3.67;;;33.60;90.50;;;;;;4148911;28;20642;-68
2022/03/23 09:03:13;;;;;;;5.53;3.63;;;33.40;91.00;;;;;;4119657;28;20054;-68
2022/03/23 09:05:19;;;;;;;7.35;3.80;;;33.20;91.30;;;;;;4154055;28;20103;-68
2022/03/23 09:07:24;;;;;;;7.25;3.38;;;33.10;91.50;;;;;;4157644;28;20065;-68
2022/03/23 09:09:31;;;;;;;9.57;3.50;;;33.00;91.80;;;;;;4157395;28;20076;-68
2022/03/23 09:11:39;;;;;;;7.82;3.70;;;32.90;92.10;;;;;;4157743;28;20053;-68
2022/03/23 09:13:44;;;;;;;11.02;3.95;;;32.80;92.00;;;;;;4159213;28;20041;-66
2022/03/23 09:15:49;;;;;;;7.03;4.22;;;32.70;91.90;;;;;;4159651;28;20041;-67
2022/03/23 09:18:01;;;;;;;5.68;3.38;;;32.60;91.80;;;;;;4154863;28;20528;-69
2022/03/23 09:20:11;;;;;;;7.03;3.80;;;32.50;91.70;;;;;;4157613;28;20053;-67
2022/03/23 09:22:20;;;;;;;7.15;3.50;;;32.40;91.70;;;;;;4157728;28;20100;-68
2022/03/23 09:24:27;;;;;;;5.93;3.50;;;32.30;91.90;;;;;;4183829;28;20152;-66
2022/03/23 09:26:32;;;;;;;6.05;3.42;;;32.20;92.10;;;;;;4160793;28;20049;-67
2022/03/23 09:28:41;;;;;;;6.40;3.28;;;32.10;92.30;;;;;;4123949;28;20077;-67
2022/03/23 09:30:48;;;;;;;5.53;3.33;;;32.00;92.60;;;;;;4158326;28;20488;-66
2022/03/23 09:32:54;;;;;;;5.45;2.75;;;31.90;92.90;;;;;;4158271;28;20407;-67
2022/03/23 09:35:00;;;;;;;6.97;3.53;;;31.80;93.00;;;;;;4124880;28;20067;-66
2022/03/23 09:39:25;;;;;;;6.95;3.50;;;31.80;93.30;;;;;;4158734;28;20053;-67
2022/03/23 09:41:33;;;;;;;9.00;4.07;;;31.70;93.50;;;;;;4153180;28;20132;-67
2022/03/23 09:43:44;;;;;;;5.18;3.63;;;31.70;93.60;;;;;;4170220;28;20144;-67
2022/03/23 09:45:50;;;;;;;6.68;3.90;;;31.70;93.70;;;;;;4158629;28;20041;-67
2022/03/23 09:47:56;;;;;;;5.90;3.40;;;31.60;93.80;;;;;;4158417;28;20053;-67
2022/03/23 09:50:04;;;;;;;5.22;3.67;;;31.50;93.80;;;;;;4156618;28;20567;-66
2022/03/23 09:52:09;;;;;;;4.55;3.38;;;31.50;93.90;;;;;;4158718;28;20052;-67
2022/03/23 09:54:17;;;;;;;6.60;3.88;;;31.40;94.00;;;;;;4114895;28;20513;-67
2022/03/23 09:56:23;;;;;;;5.60;3.90;;;31.40;94.20;;;;;;4158520;28;20099;-68
2022/03/23 09:58:29;;;;;;;6.22;3.30;;;31.30;94.60;;;;;;4159765;28;20115;-66
2022/03/23 10:00:44;;;;;;;5.75;3.45;;;31.30;94.30;;;;;;4132951;28;20057;-66
2022/03/23 10:02:54;;;;;;;;;;;31.30;94.30;;;;;;4158965;28;20111;-67
2022/03/23 10:05:12;;;;;;;4.63;3.53;;;31.30;94.20;;;;;;4158355;28;19929;-67
2022/03/23 10:07:36;;;;;;;6.20;3.10;;;31.30;94.20;;;;;;4159783;28;20045;-68
2022/03/23 10:09:48;;;;;;;8.60;3.33;;;31.20;94.30;;;;;;4157876;28;20042;-67
2022/03/23 10:12:18;;;;;;;5.38;3.50;;;31.10;94.40;;;;;;4158567;28;20064;-67
2022/03/23 10:14:49;;;;;;;4.35;3.47;;;31.20;94.60;;;;;;4159751;28;20045;-66
2022/03/23 10:17:19;;;;;;;6.78;3.50;;;31.20;94.50;;;;;;4159334;28;20045;-68
2022/03/23 10:19:25;;;;;;;5.65;3.22;;;31.20;94.50;;;;;;4158655;28;20546;-67
2022/03/23 10:21:39;;;;;;;8.70;3.63;;;31.20;94.40;;;;;;4159342;28;20041;-67
2022/03/23 10:24:00;;;;;;;6.72;3.17;;;31.20;94.50;;;;;;4152693;28;20045;-67
2022/03/23 10:26:13;;;;;;;5.47;3.47;;;31.20;94.70;;;;;;4156002;28;20057;-69
2022/03/23 10:28:21;;;;;;;7.28;4.65;;;31.20;94.80;;;;;;4157287;28;20061;-68
2022/03/23 10:30:36;;;;;;;13.75;9.40;;;31.10;94.80;;;;;;4157739;28;20037;-67
2022/03/23 10:32:44;;;;;;;14.25;10.68;;;31.10;94.80;;;;;;4156286;28;20152;-68
2022/03/23 10:34:54;;;;;;;19.23;10.68;;;31.10;94.80;;;;;;4157881;28;20050;-67
2022/03/23 10:37:02;;;;;;;12.68;9.70;;;31.00;94.70;;;;;;4156932;28;20049;-68
2022/03/23 10:39:12;;;;;;;15.02;9.07;;;31.10;94.60;;;;;;4157055;28;20272;-68
2022/03/23 10:41:25;;;;;;;12.77;8.45;;;31.10;94.70;;;;;;4155630;28;20128;-68
2022/03/23 10:43:37;;;;;;;12.50;8.43;;;31.00;94.60;;;;;;4159404;28;20041;-68
2022/03/23 10:45:43;;;;;;;11.05;7.28;;;30.90;94.90;;;;;;4167498;28;20033;-67
2022/03/23 10:47:49;;;;;;;9.60;5.20;;;30.90;95.10;;;;;;4160408;28;20495;-67
2022/03/23 10:49:54;;;;;;;9.18;4.53;;;30.90;95.00;;;;;;4158309;28;20041;-68
2022/03/23 10:52:16;;;;;;;9.25;4.50;;;30.90;95.00;;;;;;4157823;28;20502;-68
2022/03/23 10:54:26;;;;;;;5.43;3.80;;;30.90;95.10;;;;;;4158008;28;20049;-70
2022/03/23 10:56:36;;;;;;;5.35;3.70;;;30.90;95.20;;;;;;4158861;28;20037;-69
2022/03/23 10:59:17;;;;;;;8.32;4.35;;;30.60;95.60;;;;;;4158562;28;20538;-69
2022/03/23 11:01:27;;;;;;;8.30;3.80;;;30.60;95.80;;;;;;4158463;28;20099;-68
2022/03/23 11:03:37;;;;;;;4.90;3.53;;;30.60;95.60;;;;;;4159705;28;20056;-68
2022/03/23 11:05:57;;;;;;;8.73;3.90;;;30.60;95.60;;;;;;4158971;28;20045;-67
2022/03/23 11:08:16;;;;;;;8.32;3.88;;;30.70;95.70;;;;;;4129107;28;20049;-68
2022/03/23 11:16:02;;;;;;;5.30;3.67;;;30.70;95.80;;;;;;4172753;28;20520;-69
2022/03/23 11:18:30;;;;;;;6.80;3.28;;;30.70;95.70;;;;;;4143615;28;20045;-68
2022/03/23 11:20:53;;;;;;;6.10;3.75;;;30.70;95.80;;;;;;4161478;28;20064;-68